createdAt,value
2018-10-19T00:00:01.214Z,3.4
2018-10-19T00:05:01.494Z,3.2
2018-10-19T00:10:01.280Z,3.0
2018-10-19T00:15:01.577Z,3.2
2018-10-19T00:20:01.221Z,2.8
2018-10-19T00:25:01.226Z,2.8
2018-10-19T00:30:01.226Z,2.2
2018-10-19T00:35:01.607Z,2.0
2018-10-19T00:40:01.229Z,1.6
2018-10-19T00:45:01.468Z,1.4
2018-10-19T00:50:01.239Z,1.2
2018-10-19T00:55:01.239Z,1.3
2018-10-19T01:00:01.236Z,1.1
2018-10-19T01:05:01.507Z,1.2
2018-10-19T01:10:01.242Z,1.3
2018-10-19T01:15:01.588Z,1.4
2018-10-19T01:20:01.242Z,1.1
2018-10-19T01:25:01.262Z,1.1
2018-10-19T01:30:01.249Z,1.1
2018-10-19T01:35:01.392Z,0.9
2018-10-19T01:40:01.293Z,0.8
2018-10-19T01:45:01.523Z,1.0
2018-10-19T01:50:01.305Z,1.2
2018-10-19T01:55:01.307Z,1.2
2018-10-19T02:00:01.855Z,1.4
2018-10-19T02:05:01.560Z,1.3
2018-10-19T02:10:01.278Z,1.3
2018-10-19T02:15:01.467Z,1.1
2018-10-19T02:20:01.325Z,1.1
2018-10-19T02:25:01.264Z,0.8
2018-10-19T02:30:01.335Z,0.8
2018-10-19T02:35:01.479Z,0.8
2018-10-19T02:40:01.335Z,0.8
2018-10-19T02:45:01.597Z,0.9
2018-10-19T02:50:01.280Z,0.8
2018-10-19T02:55:01.344Z,0.7
2018-10-19T03:00:01.316Z,0.9
2018-10-19T03:05:01.477Z,0.9
2018-10-19T03:10:01.425Z,0.7
2018-10-19T03:15:01.654Z,0.9
2018-10-19T03:20:01.284Z,1.1
2018-10-19T03:25:01.285Z,0.9
2018-10-19T03:30:01.419Z,0.8
2018-10-19T03:35:01.491Z,0.7
2018-10-19T03:45:01.573Z,0.7
2018-10-19T03:50:01.391Z,0.9
2018-10-19T03:55:01.596Z,1.0
2018-10-19T04:00:01.614Z,1.2
2018-10-19T04:05:01.544Z,1.2
2018-10-19T04:10:01.305Z,1.2
2018-10-19T04:15:01.535Z,1.0
2018-10-19T04:20:01.307Z,1.4
2018-10-19T04:25:01.320Z,1.8
2018-10-19T04:30:01.409Z,2.0
2018-10-19T04:35:01.748Z,2.6
2018-10-19T04:40:01.353Z,3.2
2018-10-19T04:45:01.874Z,3.1
2018-10-19T04:50:01.375Z,2.8
2018-10-19T05:00:01.426Z,2.4
2018-10-19T05:05:01.591Z,2.0
2018-10-19T05:10:01.384Z,1.6
2018-10-19T05:15:01.381Z,2.1
2018-10-19T05:20:01.516Z,2.4
2018-10-19T05:25:01.386Z,2.4
2018-10-19T05:30:02.398Z,2.8
2018-10-19T05:35:01.678Z,3.1
2018-10-19T05:40:06.420Z,3.4
2018-10-19T05:45:01.360Z,3.7
2018-10-19T05:50:01.676Z,4.1
2018-10-19T05:55:01.355Z,3.8
2018-10-19T06:00:01.761Z,3.7
2018-10-19T06:05:01.719Z,3.3
2018-10-19T06:10:01.433Z,2.8
2018-10-19T06:15:01.372Z,2.8
2018-10-19T06:20:01.595Z,3.0
2018-10-19T06:25:01.374Z,3.4
2018-10-19T06:30:01.433Z,3.6
2018-10-19T06:35:01.682Z,4.0
2018-10-19T06:40:01.459Z,4.2
2018-10-19T06:45:01.374Z,4.5
2018-10-19T06:50:01.639Z,4.7
2018-10-19T06:55:01.377Z,4.7
2018-10-19T07:00:01.388Z,4.7
2018-10-19T07:05:01.678Z,4.1
2018-10-19T07:10:01.386Z,3.8
2018-10-19T07:15:01.393Z,3.8
2018-10-19T07:20:01.674Z,4.0
2018-10-19T07:25:01.593Z,4.0
2018-10-19T07:30:01.395Z,4.4
2018-10-19T07:35:01.621Z,4.5
2018-10-19T07:40:01.380Z,4.5
2018-10-19T07:45:01.380Z,4.5
2018-10-19T07:55:01.380Z,5.2
2018-10-19T08:00:01.647Z,5.7
2018-10-19T08:05:01.589Z,5.8
2018-10-19T08:10:01.393Z,5.7
2018-10-19T08:15:01.398Z,5.5
2018-10-19T08:21:01.801Z,5.6
2018-10-19T08:26:01.632Z,6.9
2018-10-19T08:31:01.442Z,7.0
2018-10-19T08:36:01.388Z,7.7
2018-10-19T08:41:01.683Z,8.0
2018-10-19T08:46:01.467Z,8.2
2018-10-19T08:51:01.783Z,7.5
2018-10-19T08:56:01.387Z,8.7
2018-10-19T09:01:01.396Z,8.2
2018-10-19T09:06:01.579Z,7.4
2018-10-19T09:11:01.780Z,7.0
2018-10-19T09:16:01.414Z,5.9
2018-10-19T09:21:01.654Z,4.1
2018-10-19T09:26:01.403Z,3.5
2018-10-19T09:36:01.671Z,5.6
2018-10-19T09:41:06.842Z,6.8
2018-10-19T09:46:06.391Z,10.0
2018-10-19T09:51:01.614Z,10.5
2018-10-19T09:56:01.691Z,10.8
2018-10-19T10:01:06.804Z,9.1
2018-10-19T10:06:01.451Z,8.5
2018-10-19T10:11:01.802Z,5.3
2018-10-19T10:21:01.394Z,5.3
2018-10-19T10:26:01.389Z,4.5
2018-10-19T10:31:01.627Z,3.7
2018-10-19T10:41:01.380Z,3.2
2018-10-19T10:46:01.530Z,2.0
2018-10-19T10:51:01.385Z,1.6
2018-10-19T10:56:01.430Z,1.2
2018-10-19T11:01:01.675Z,1.0
2018-10-19T11:06:06.403Z,0.8
2018-10-19T11:11:06.395Z,0.6
2018-10-19T11:16:01.682Z,0.4
2018-10-19T11:21:01.377Z,0.2
2018-10-19T11:26:06.381Z,0.2
2018-10-19T11:36:02.202Z,0.6
2018-10-19T11:41:06.385Z,0.8
2018-10-19T11:46:01.587Z,0.9
2018-10-19T11:51:01.503Z,0.9
2018-10-19T11:56:01.426Z,0.9
2018-10-19T12:02:06.382Z,0.9
2018-10-19T12:07:01.751Z,1.1
2018-10-19T12:12:01.429Z,1.2
2018-10-19T12:17:02.333Z,1.0
2018-10-19T12:27:06.650Z,1.0
2018-10-19T12:32:01.435Z,1.0
2018-10-19T12:37:01.569Z,1.1
2018-10-19T12:42:01.866Z,1.2
2018-10-19T12:47:01.414Z,1.0
2018-10-19T13:00:01.157Z,0.0
2018-10-19T13:05:01.207Z,0.2
2018-10-19T13:10:01.146Z,0.5
2018-10-19T13:15:01.430Z,0.6
2018-10-19T13:25:01.214Z,0.9
2018-10-19T13:30:01.299Z,1.0
2018-10-19T13:40:01.152Z,1.1
2018-10-19T13:45:01.420Z,1.0
2018-10-19T13:50:01.282Z,1.0
2018-10-19T14:00:02.253Z,0.8
2018-10-19T14:05:01.529Z,0.7
2018-10-19T14:15:01.327Z,0.5
2018-10-19T14:20:01.231Z,0.3
2018-10-19T14:25:01.567Z,0.4
2018-10-19T14:30:01.163Z,0.3
2018-10-19T14:35:01.360Z,0.5
2018-10-19T14:40:01.170Z,0.4
2018-10-19T14:45:01.395Z,0.6
2018-10-19T14:55:01.285Z,0.7
2018-10-19T15:00:01.178Z,0.7
2018-10-19T15:05:01.434Z,1.3
2018-10-19T15:10:02.062Z,1.5
2018-10-19T15:15:01.393Z,2.0
2018-10-19T15:20:01.177Z,2.2
2018-10-19T15:30:01.475Z,2.1
2018-10-19T15:35:01.515Z,2.3
2018-10-19T15:40:01.217Z,2.0
2018-10-19T15:45:01.395Z,2.0
2018-10-19T16:00:01.654Z,1.4
2018-10-19T16:05:01.236Z,1.8
2018-10-19T16:10:01.472Z,2.2
2018-10-19T16:15:01.678Z,2.9
2018-10-19T16:20:01.311Z,3.9
2018-10-19T16:25:01.316Z,5.1
2018-10-19T16:30:01.494Z,6.1
2018-10-19T16:35:01.327Z,7.1
2018-10-19T16:40:01.255Z,8.6
2018-10-19T16:45:06.569Z,9.6
2018-10-19T16:50:01.611Z,9.9
2018-10-19T16:55:01.287Z,9.5
2018-10-19T17:00:01.544Z,8.8
2018-10-19T17:05:01.334Z,7.6
2018-10-19T17:10:01.263Z,6.5
2018-10-19T17:15:01.571Z,5.7
2018-10-19T17:20:01.264Z,5.3
2018-10-19T17:25:01.272Z,4.9
2018-10-19T17:30:01.589Z,4.4
2018-10-19T17:35:01.527Z,3.9
2018-10-19T17:40:01.292Z,3.4
2018-10-19T17:45:01.484Z,3.1
2018-10-19T17:55:01.290Z,3.1
2018-10-19T18:00:01.633Z,3.2
2018-10-19T18:05:01.791Z,3.2
2018-10-19T18:10:01.498Z,3.7
2018-10-19T18:15:01.396Z,3.6
2018-10-19T18:20:06.248Z,4.6
2018-10-19T18:25:01.578Z,5.4
2018-10-19T18:30:06.257Z,5.4
2018-10-19T18:35:01.814Z,5.0
2018-10-19T18:40:01.389Z,5.0
2018-10-19T18:45:01.262Z,4.2
2018-10-19T18:50:01.670Z,4.0
2018-10-19T18:55:01.470Z,4.6
2018-10-19T19:00:01.302Z,4.7
2018-10-19T19:10:01.272Z,4.7
2018-10-19T19:15:01.300Z,4.2
2018-10-19T19:20:01.575Z,3.7
2018-10-19T19:25:01.307Z,3.9
2018-10-19T19:30:01.306Z,3.9
2018-10-19T19:35:01.402Z,3.5
2018-10-19T19:40:01.534Z,3.6
2018-10-19T19:45:01.312Z,3.7
2018-10-19T19:50:01.613Z,3.5
2018-10-19T19:55:01.286Z,3.6
2018-10-19T20:00:01.338Z,4.2
2018-10-19T20:05:01.618Z,4.8
2018-10-19T20:10:01.286Z,5.6
2018-10-19T20:15:01.290Z,5.6
2018-10-19T20:20:01.533Z,5.4
2018-10-19T20:25:01.289Z,5.2
2018-10-19T20:30:01.302Z,4.8
2018-10-19T20:35:01.581Z,4.0
2018-10-19T20:40:01.304Z,3.8
2018-10-19T20:45:01.306Z,3.9
2018-10-19T20:50:01.524Z,4.3
2018-10-19T20:55:01.311Z,4.3
2018-10-19T21:00:01.305Z,4.9
2018-10-19T21:10:01.359Z,5.0
2018-10-19T21:15:01.349Z,4.6
2018-10-19T21:20:01.611Z,4.2
2018-10-19T21:25:01.320Z,3.6
2018-10-19T21:30:01.651Z,3.3
2018-10-19T21:35:01.537Z,3.1
2018-10-19T21:40:01.359Z,2.9
2018-10-19T21:45:01.325Z,3.0
2018-10-19T21:50:01.596Z,3.0
2018-10-19T22:00:01.337Z,3.0
2018-10-19T22:05:01.603Z,2.8
2018-10-19T22:10:01.387Z,2.8
2018-10-19T22:15:02.125Z,2.4
2018-10-19T22:20:01.356Z,2.0
2018-10-19T22:25:01.705Z,2.0
2018-10-19T22:30:01.345Z,1.8
2018-10-19T22:35:01.617Z,1.6
2018-10-19T22:40:01.343Z,1.6
2018-10-19T22:45:01.361Z,1.6
2018-10-19T22:50:01.344Z,1.8
2018-10-19T22:55:01.620Z,2.2
2018-10-19T23:00:01.353Z,2.6
2018-10-19T23:05:01.642Z,3.0
2018-10-19T23:10:01.351Z,3.2
2018-10-19T23:15:01.365Z,3.2
2018-10-19T23:25:01.551Z,2.8
2018-10-19T23:30:01.376Z,2.9
2018-10-19T23:35:01.755Z,2.9
2018-10-19T23:40:01.372Z,2.9
2018-10-19T23:45:01.435Z,2.9
2018-10-19T23:50:01.382Z,2.9
2018-10-19T23:55:01.615Z,2.8
